createdAt,value
2019-02-26T00:01:07.234Z,81.47
2019-02-26T00:04:11.610Z,74.43
2019-02-26T00:07:18.287Z,70.37
2019-02-26T00:10:24.591Z,74.67
2019-02-26T00:13:29.566Z,71.60
2019-02-26T00:16:37.693Z,70.93
2019-02-26T00:19:39.863Z,70.33
2019-02-26T00:22:44.102Z,73.00
2019-02-26T00:25:48.427Z,69.97
2019-02-26T00:28:52.716Z,71.63
2019-02-26T00:31:57.773Z,69.27
2019-02-26T00:35:04.149Z,65.97
2019-02-26T00:38:08.956Z,65.57
2019-02-26T00:41:14.219Z,64.00
2019-02-26T00:44:18.641Z,62.70
2019-02-26T00:47:24.401Z,64.47
2019-02-26T00:50:30.369Z,62.83
2019-02-26T00:53:36.163Z,60.60
2019-02-26T00:56:41.126Z,59.70
2019-02-26T00:59:46.417Z,61.40
2019-02-26T01:02:51.609Z,59.67
2019-02-26T01:05:57.053Z,60.43
2019-02-26T01:09:03.753Z,60.87
2019-02-26T01:12:09.199Z,58.47
2019-02-26T01:15:14.139Z,57.77
2019-02-26T01:18:20.247Z,56.17
2019-02-26T01:21:26.799Z,56.20
2019-02-26T01:24:32.650Z,56.07
2019-02-26T01:27:36.625Z,55.90
2019-02-26T01:30:41.015Z,58.43
2019-02-26T01:33:46.768Z,58.50
2019-02-26T01:36:51.217Z,55.77
2019-02-26T01:39:55.565Z,56.93
2019-02-26T01:43:02.576Z,56.47
2019-02-26T01:46:07.791Z,63.97
2019-02-26T01:49:11.979Z,56.63
2019-02-26T01:52:17.466Z,57.00
2019-02-26T01:55:22.953Z,53.60
2019-02-26T01:58:27.844Z,52.83
2019-02-26T02:01:32.138Z,50.20
2019-02-26T02:04:38.644Z,48.80
2019-02-26T02:07:46.068Z,48.00
2019-02-26T02:10:51.402Z,48.07
2019-02-26T02:13:54.545Z,49.17
2019-02-26T02:16:58.887Z,45.87
2019-02-26T02:20:07.699Z,45.27
2019-02-26T02:23:09.351Z,46.13
2019-02-26T02:26:15.561Z,42.43
2019-02-26T02:29:21.514Z,40.63
2019-02-26T02:32:26.639Z,41.77
2019-02-26T02:35:31.400Z,41.57
2019-02-26T02:38:37.096Z,38.40
2019-02-26T02:41:42.102Z,41.97
2019-02-26T02:44:49.431Z,40.83
2019-02-26T02:47:57.719Z,38.97
2019-02-26T02:51:01.779Z,40.83
2019-02-26T02:54:05.639Z,38.60
2019-02-26T02:57:10.131Z,36.80
2019-02-26T03:00:15.171Z,38.00
2019-02-26T03:03:19.531Z,37.73
2019-02-26T03:06:24.261Z,38.67
2019-02-26T03:09:31.755Z,35.23
2019-02-26T03:12:35.629Z,34.17
2019-02-26T03:15:39.969Z,37.20
2019-02-26T03:18:44.281Z,36.47
2019-02-26T03:21:49.715Z,34.23
2019-02-26T03:24:57.068Z,35.60
2019-02-26T03:28:00.591Z,34.13
2019-02-26T03:31:04.875Z,34.57
2019-02-26T03:34:14.621Z,34.63
2019-02-26T03:37:15.241Z,33.33
2019-02-26T03:40:20.897Z,34.77
2019-02-26T03:43:25.506Z,32.90
2019-02-26T03:46:29.725Z,33.03
2019-02-26T03:49:35.082Z,33.63
2019-02-26T03:52:39.435Z,34.87
2019-02-26T03:55:44.031Z,35.70
2019-02-26T03:58:52.157Z,37.90
2019-02-26T04:01:54.439Z,34.40
2019-02-26T04:05:00.773Z,34.40
2019-02-26T04:08:04.618Z,35.57
2019-02-26T04:11:08.956Z,36.33
2019-02-26T04:14:15.341Z,37.40
2019-02-26T04:17:23.185Z,34.70
2019-02-26T04:20:27.739Z,36.63
2019-02-26T04:23:30.920Z,36.53
2019-02-26T04:27:17.955Z,35.27
2019-02-26T04:30:57.039Z,32.10
2019-02-26T04:34:16.218Z,34.33
2019-02-26T04:37:55.769Z,32.63
2019-02-26T04:41:17.818Z,33.20
2019-02-26T04:44:55.217Z,32.33
2019-02-26T04:48:00.638Z,32.43
2019-02-26T04:51:04.493Z,33.93
2019-02-26T04:54:08.766Z,34.37
2019-02-26T04:57:13.139Z,32.23
2019-02-26T05:00:17.358Z,32.43
2019-02-26T05:03:21.734Z,32.67
2019-02-26T05:06:26.381Z,33.00
2019-02-26T05:09:32.580Z,33.23
2019-02-26T05:12:37.928Z,33.73
2019-02-26T05:15:43.638Z,34.87
2019-02-26T05:18:49.587Z,35.30
2019-02-26T05:21:55.980Z,34.47
2019-02-26T05:25:00.053Z,33.63
2019-02-26T05:28:06.552Z,34.60
2019-02-26T05:31:12.477Z,33.07
2019-02-26T05:34:18.193Z,32.53
2019-02-26T05:37:22.922Z,34.47
2019-02-26T05:40:27.288Z,35.30
2019-02-26T05:43:33.954Z,33.33
2019-02-26T05:46:37.479Z,34.63
2019-02-26T05:49:43.791Z,33.33
2019-02-26T05:52:50.409Z,31.63
2019-02-26T05:55:55.966Z,33.57
2019-02-26T05:59:02.078Z,33.67
2019-02-26T06:02:05.866Z,33.37
2019-02-26T06:05:11.898Z,33.90
2019-02-26T06:08:16.238Z,32.93
2019-02-26T06:11:20.593Z,33.33
2019-02-26T06:14:27.208Z,32.27
2019-02-26T06:17:30.799Z,32.03
2019-02-26T06:20:36.623Z,33.13
2019-02-26T06:23:43.109Z,30.33
2019-02-26T06:26:47.102Z,31.93
2019-02-26T06:29:55.094Z,32.03
2019-02-26T06:33:02.046Z,30.13
2019-02-26T06:36:04.703Z,31.50
2019-02-26T06:39:09.474Z,31.60
2019-02-26T06:42:14.466Z,31.37
2019-02-26T06:45:18.933Z,29.97
2019-02-26T06:48:25.041Z,31.93
2019-02-26T06:51:30.772Z,30.50
2019-02-26T06:54:35.376Z,31.23
2019-02-26T06:57:41.403Z,31.83
2019-02-26T07:00:47.669Z,32.30
2019-02-26T07:03:56.171Z,32.10
2019-02-26T07:07:01.954Z,30.00
2019-02-26T07:10:08.220Z,31.20
2019-02-26T07:13:14.106Z,30.90
2019-02-26T07:16:20.721Z,29.60
2019-02-26T07:19:25.876Z,30.43
2019-02-26T07:22:30.369Z,29.63
2019-02-26T07:25:37.028Z,30.47
2019-02-26T07:28:41.567Z,30.60
2019-02-26T07:31:49.044Z,30.53
2019-02-26T07:34:53.257Z,29.67
2019-02-26T07:37:59.466Z,30.07
2019-02-26T07:41:04.185Z,29.97
2019-02-26T07:44:15.414Z,30.60
2019-02-26T07:47:15.578Z,30.07
2019-02-26T07:50:19.973Z,29.83
2019-02-26T07:53:24.644Z,29.17
2019-02-26T07:56:32.071Z,30.37
2019-02-26T07:59:36.969Z,30.57
2019-02-26T08:02:41.046Z,28.97
2019-02-26T08:05:45.311Z,30.50
2019-02-26T08:08:49.596Z,28.63
2019-02-26T08:11:53.773Z,28.13
2019-02-26T08:14:58.146Z,30.53
2019-02-26T08:18:03.464Z,29.10
2019-02-26T08:21:08.508Z,29.83
2019-02-26T08:24:14.774Z,29.47
2019-02-26T08:27:18.876Z,28.20
2019-02-26T08:30:25.569Z,27.97
2019-02-26T08:33:29.347Z,27.73
2019-02-26T08:36:33.619Z,27.73
2019-02-26T08:39:38.706Z,27.00
2019-02-26T08:42:43.173Z,26.47
2019-02-26T08:45:47.500Z,24.57
2019-02-26T08:48:51.831Z,25.17
2019-02-26T08:51:56.145Z,24.47
2019-02-26T08:55:00.494Z,23.50
2019-02-26T08:58:04.858Z,24.47
2019-02-26T09:01:09.191Z,23.53
2019-02-26T09:04:14.529Z,24.10
2019-02-26T09:07:21.316Z,23.67
2019-02-26T09:10:25.611Z,22.97
2019-02-26T09:13:31.631Z,23.63
2019-02-26T09:16:35.915Z,23.07
2019-02-26T09:19:40.276Z,22.83
2019-02-26T09:22:48.008Z,21.90
2019-02-26T09:25:54.190Z,21.70
2019-02-26T09:28:57.167Z,22.27
2019-02-26T09:32:01.620Z,21.97
2019-02-26T09:35:06.669Z,21.57
2019-02-26T09:38:12.360Z,21.30
2019-02-26T09:41:18.862Z,22.83
2019-02-26T09:44:23.985Z,21.23
2019-02-26T09:47:32.884Z,22.07
2019-02-26T09:50:36.717Z,20.40
2019-02-26T09:53:41.135Z,21.80
2019-02-26T09:56:45.461Z,20.90
2019-02-26T09:59:51.678Z,20.43
2019-02-26T10:02:55.792Z,22.47
2019-02-26T10:06:00.250Z,21.10
2019-02-26T10:09:08.392Z,19.93
2019-02-26T10:12:15.111Z,19.90
2019-02-26T10:15:18.310Z,19.87
2019-02-26T10:18:23.839Z,19.57
2019-02-26T10:21:28.649Z,19.87
2019-02-26T10:24:35.306Z,20.50
2019-02-26T10:27:41.373Z,20.80
2019-02-26T10:30:45.500Z,19.87
2019-02-26T10:33:50.822Z,19.30
2019-02-26T10:36:55.736Z,20.47
2019-02-26T10:40:00.093Z,19.93
2019-02-26T10:43:04.637Z,20.73
2019-02-26T10:46:08.905Z,22.00
2019-02-26T10:49:13.280Z,21.37
2019-02-26T10:52:19.416Z,20.80
2019-02-26T10:55:28.145Z,19.13
2019-02-26T10:58:29.593Z,19.77
2019-02-26T11:01:34.035Z,18.13
2019-02-26T11:04:41.324Z,17.73
2019-02-26T11:07:44.337Z,18.13
2019-02-26T11:10:50.259Z,18.90
2019-02-26T11:13:54.692Z,19.83
2019-02-26T11:16:58.967Z,20.10
2019-02-26T11:20:04.577Z,18.30
2019-02-26T11:23:13.266Z,17.73
2019-02-26T11:26:18.063Z,17.37
2019-02-26T11:29:21.374Z,15.53
2019-02-26T11:32:27.808Z,16.80
2019-02-26T11:35:31.663Z,16.50
2019-02-26T11:38:39.026Z,16.53
2019-02-26T11:41:41.991Z,15.57
2019-02-26T11:44:46.293Z,15.33
2019-02-26T11:47:50.628Z,15.17
2019-02-26T11:50:54.966Z,15.20
2019-02-26T11:54:00.054Z,15.43
2019-02-26T11:57:08.043Z,14.40
2019-02-26T12:00:24.215Z,14.63
2019-02-26T12:03:24.900Z,14.63
2019-02-26T12:06:27.898Z,14.37
2019-02-26T12:09:35.030Z,14.07
2019-02-26T12:12:38.343Z,15.50
2019-02-26T12:15:42.857Z,14.50
2019-02-26T12:18:47.230Z,13.47
2019-02-26T12:21:52.752Z,14.13
2019-02-26T12:24:58.769Z,14.47
2019-02-26T12:28:05.299Z,13.80
2019-02-26T12:31:12.660Z,13.43
2019-02-26T12:34:17.449Z,13.20
2019-02-26T12:37:21.570Z,13.77
2019-02-26T12:40:25.873Z,13.53
2019-02-26T12:43:30.793Z,13.23
2019-02-26T12:46:38.041Z,13.70
2019-02-26T12:49:45.057Z,12.63
2019-02-26T12:52:51.606Z,12.67
2019-02-26T12:55:56.508Z,12.10
2019-02-26T12:59:00.522Z,12.53
2019-02-26T13:02:06.603Z,11.70
2019-02-26T13:05:13.397Z,11.67
2019-02-26T13:08:19.599Z,10.73
2019-02-26T13:11:24.993Z,11.30
2019-02-26T13:14:29.163Z,10.90
2019-02-26T13:17:34.826Z,10.50
2019-02-26T13:20:39.065Z,11.23
2019-02-26T13:23:43.372Z,11.23
2019-02-26T13:26:51.066Z,10.13
2019-02-26T13:29:56.921Z,11.30
2019-02-26T13:33:00.970Z,10.83
2019-02-26T13:36:05.994Z,9.80
2019-02-26T13:39:10.301Z,9.10
2019-02-26T13:42:19.165Z,9.37
2019-02-26T13:45:21.514Z,9.80
2019-02-26T13:48:25.903Z,9.50
2019-02-26T13:51:30.236Z,9.00
2019-02-26T13:54:34.588Z,9.10
2019-02-26T13:57:38.959Z,8.70
2019-02-26T14:00:43.453Z,8.67
2019-02-26T14:03:47.747Z,8.00
2019-02-26T14:06:52.117Z,8.37
2019-02-26T14:09:56.751Z,8.70
2019-02-26T14:13:01.139Z,7.60
2019-02-26T14:16:05.556Z,7.17
2019-02-26T14:19:09.944Z,7.40
2019-02-26T14:22:14.299Z,7.90
2019-02-26T14:25:18.699Z,6.70
2019-02-26T14:28:23.211Z,6.80
2019-02-26T14:31:27.698Z,6.70
2019-02-26T14:34:32.302Z,7.20
2019-02-26T14:37:36.655Z,7.47
2019-02-26T14:40:41.061Z,6.50
2019-02-26T14:43:45.507Z,7.43
2019-02-26T14:46:49.950Z,7.43
2019-02-26T14:49:54.546Z,6.33
2019-02-26T14:52:58.964Z,7.00
2019-02-26T14:56:03.348Z,6.33
2019-02-26T14:59:07.696Z,6.47
2019-02-26T15:02:12.036Z,6.33
2019-02-26T15:05:16.349Z,6.47
2019-02-26T15:08:20.717Z,7.30
2019-02-26T15:11:25.166Z,8.57
2019-02-26T15:14:29.559Z,8.33
2019-02-26T15:17:34.002Z,8.03
2019-02-26T15:20:38.410Z,9.17
2019-02-26T15:23:42.664Z,8.70
2019-02-26T15:26:47.000Z,9.97
2019-02-26T15:29:51.355Z,9.93
2019-02-26T15:32:57.248Z,9.60
2019-02-26T15:36:02.026Z,9.00
2019-02-26T15:39:07.449Z,9.20
2019-02-26T15:42:11.852Z,9.63
2019-02-26T15:45:18.708Z,9.23
2019-02-26T15:48:23.411Z,10.73
2019-02-26T15:51:27.825Z,11.53
2019-02-26T15:54:32.155Z,10.90
2019-02-26T15:57:36.545Z,9.47
2019-02-26T16:00:41.096Z,9.43
2019-02-26T16:03:45.664Z,9.03
2019-02-26T16:06:49.942Z,9.90
2019-02-26T16:09:56.291Z,10.03
2019-02-26T16:13:07.334Z,10.30
2019-02-26T16:16:11.716Z,9.53
2019-02-26T16:19:16.778Z,10.40
2019-02-26T16:22:21.209Z,9.23
2019-02-26T16:25:25.477Z,10.13
2019-02-26T16:28:29.781Z,10.17
2019-02-26T16:31:34.140Z,10.77
2019-02-26T16:34:38.783Z,10.43
2019-02-26T16:37:43.142Z,11.10
2019-02-26T16:40:47.424Z,12.60
2019-02-26T16:43:52.393Z,12.53
2019-02-26T16:46:56.800Z,11.13
2019-02-26T16:50:11.715Z,12.23
2019-02-26T16:53:08.053Z,11.13
2019-02-26T16:56:13.959Z,12.17
2019-02-26T16:59:18.422Z,11.67
2019-02-26T17:02:22.771Z,12.33
2019-02-26T17:05:27.194Z,13.30
2019-02-26T17:08:31.941Z,12.57
2019-02-26T17:11:36.352Z,13.03
2019-02-26T17:14:40.696Z,13.27
2019-02-26T17:17:45.102Z,13.47
2019-02-26T17:20:49.436Z,12.13
2019-02-26T17:23:53.810Z,12.73
2019-02-26T17:26:58.331Z,13.17
2019-02-26T17:30:02.912Z,14.07
2019-02-26T17:33:11.258Z,13.20
2019-02-26T17:36:13.246Z,14.47
2019-02-26T17:39:17.539Z,13.37
2019-02-26T17:42:22.256Z,13.77
2019-02-26T17:45:26.668Z,14.37
2019-02-26T17:48:31.778Z,14.17
2019-02-26T17:51:37.214Z,14.77
2019-02-26T17:54:42.043Z,15.27
2019-02-26T17:57:46.417Z,14.60
2019-02-26T18:00:54.587Z,14.50
2019-02-26T18:03:59.006Z,19.53
2019-02-26T18:07:03.427Z,21.93
2019-02-26T18:10:12.535Z,22.83
2019-02-26T18:13:20.499Z,29.40
2019-02-26T18:16:22.721Z,30.07
2019-02-26T18:19:27.125Z,31.43
2019-02-26T18:22:31.705Z,37.20
2019-02-26T18:25:36.281Z,31.37
2019-02-26T18:28:40.649Z,29.00
2019-02-26T18:31:45.038Z,28.40
2019-02-26T18:34:49.342Z,33.07
2019-02-26T18:37:54.978Z,31.20
2019-02-26T18:41:00.769Z,30.00
2019-02-26T18:44:04.627Z,29.53
2019-02-26T18:47:08.920Z,29.90
2019-02-26T18:50:13.446Z,28.37
2019-02-26T18:53:17.804Z,28.73
2019-02-26T18:56:22.194Z,27.77
2019-02-26T18:59:26.498Z,29.33
2019-02-26T19:02:30.858Z,31.30
2019-02-26T19:05:35.275Z,32.20
2019-02-26T19:08:39.981Z,31.50
2019-02-26T19:11:44.466Z,29.87
2019-02-26T19:14:48.871Z,29.40
2019-02-26T19:17:53.929Z,30.23
2019-02-26T19:20:58.269Z,29.57
2019-02-26T19:24:04.563Z,28.17
2019-02-26T19:27:08.678Z,31.27
2019-02-26T19:30:15.094Z,31.60
2019-02-26T19:33:21.773Z,30.27
2019-02-26T19:36:25.737Z,28.87
2019-02-26T19:39:33.522Z,30.20
2019-02-26T19:42:36.253Z,30.00
2019-02-26T19:45:43.969Z,28.53
2019-02-26T19:48:48.952Z,28.83
2019-02-26T19:51:57.423Z,28.80
2019-02-26T19:55:01.719Z,26.50
2019-02-26T19:58:07.102Z,25.43
2019-02-26T20:01:11.832Z,28.43
2019-02-26T20:04:16.276Z,26.50
2019-02-26T20:07:20.742Z,25.80
2019-02-26T20:10:25.459Z,27.07
2019-02-26T20:13:31.754Z,27.10
2019-02-26T20:16:36.980Z,27.70
2019-02-26T20:19:41.454Z,28.70
2019-02-26T20:22:45.956Z,28.00
2019-02-26T20:25:50.423Z,28.93
2019-02-26T20:28:54.822Z,29.80
2019-02-26T20:31:59.851Z,30.93
2019-02-26T20:35:04.647Z,37.23
2019-02-26T20:38:09.007Z,41.03
2019-02-26T20:41:13.282Z,46.83
2019-02-26T20:44:18.607Z,50.50
2019-02-26T20:47:25.453Z,55.57
2019-02-26T20:50:29.939Z,55.73
2019-02-26T20:53:36.646Z,57.33
2019-02-26T20:56:40.934Z,54.97
2019-02-26T20:59:45.353Z,54.37
2019-02-26T21:02:49.652Z,52.27
2019-02-26T21:05:53.912Z,51.47
2019-02-26T21:08:58.360Z,53.77
2019-02-26T21:12:02.763Z,49.63
2019-02-26T21:15:13.581Z,50.60
2019-02-26T21:18:15.851Z,48.63
2019-02-26T21:21:20.453Z,48.70
2019-02-26T21:24:25.017Z,47.90
2019-02-26T21:27:29.354Z,47.43
2019-02-26T21:30:33.753Z,47.23
2019-02-26T21:33:38.225Z,46.70
2019-02-26T21:36:42.454Z,43.87
2019-02-26T21:39:46.738Z,45.10
2019-02-26T21:42:51.145Z,45.10
2019-02-26T21:45:55.524Z,45.40
2019-02-26T21:48:59.895Z,45.07
2019-02-26T21:52:08.715Z,44.90
2019-02-26T21:55:12.334Z,47.17
2019-02-26T21:58:16.596Z,47.80
2019-02-26T22:01:20.900Z,45.40
2019-02-26T22:04:25.293Z,46.10
2019-02-26T22:07:29.710Z,47.97
2019-02-26T22:10:34.050Z,47.07
2019-02-26T22:13:38.371Z,46.73
2019-02-26T22:16:43.213Z,49.07
2019-02-26T22:19:47.600Z,48.07
2019-02-26T22:22:51.949Z,46.40
2019-02-26T22:25:56.571Z,46.43
2019-02-26T22:29:00.998Z,47.80
2019-02-26T22:32:05.370Z,48.80
2019-02-26T22:35:10.487Z,47.93
2019-02-26T22:38:15.441Z,47.30
2019-02-26T22:41:20.374Z,47.77
2019-02-26T22:44:24.756Z,45.83
2019-02-26T22:47:29.107Z,46.90
2019-02-26T22:50:33.409Z,47.73
2019-02-26T22:53:37.595Z,46.80
2019-02-26T22:56:41.954Z,46.80
2019-02-26T22:59:46.326Z,47.83
2019-02-26T23:02:50.737Z,48.67
2019-02-26T23:05:58.786Z,46.90
2019-02-26T23:09:02.280Z,47.47
2019-02-26T23:12:06.760Z,49.37
2019-02-26T23:15:11.986Z,48.47
2019-02-26T23:18:17.629Z,48.90
2019-02-26T23:21:22.412Z,50.53
2019-02-26T23:24:28.018Z,51.00
2019-02-26T23:27:32.967Z,50.57
2019-02-26T23:30:37.332Z,50.37
2019-02-26T23:33:41.727Z,50.93
2019-02-26T23:36:46.112Z,49.63
2019-02-26T23:39:51.037Z,50.57
2019-02-26T23:42:56.622Z,52.30
2019-02-26T23:46:00.903Z,52.40
2019-02-26T23:49:05.483Z,52.07
2019-02-26T23:52:09.858Z,52.40
2019-02-26T23:55:14.116Z,50.87
2019-02-26T23:58:18.410Z,53.27
